Les Foulées Châtillonnaises

dimanche 15 octobre 2023Châtillon, 92, FranceRunning

258 participants136 Femmes • 122 Hommes

29 licenciés (11%) • 229 non-licenciés (89%)

Temps moyen : 00:28:48

PositionNom/PrénomTps officielClubDossardCatégorieKm/hActions
151ROZANE HAYATE00:30:51AG2R BRUNE5075M3F (3 / 10)9.7
152GUIHARD EMMA00:31:015003CAF (7 / 9)9.6
153GUIHARD FREDERIC00:31:025002M2M (14 / 17)9.6
154ANTOINE CHRISTOPHE00:31:02UAI CHATENAY-MALABRY5218M4M (7 / 9)9.6
155TERCERO BLANDINE00:31:035055SEF (19 / 42)9.6
156BREGEON CAROLINE00:31:105099JUF (2 / 2)9.6
157VANDEWALLE CHARLES00:31:17EXPECTRA SEARCH5230M2M (15 / 17)9.5
158DELAFARGUE VIOLETTE00:31:20EQUIPE SCIENCES PO PARIS5180ESF (6 / 15)9.5
159PHILIPPE PIERRICK00:31:215018M3M (8 / 12)9.5
160RIEG QUENTIN00:31:245035ESM (3 / 3)9.5
161GODON ESTELLE00:31:245036SEF (20 / 42)9.5
162JACQUEMIN CORINNE00:31:275013M5F (4 / 6)9.5
163DIGNEFFE LAURE00:31:35CLAMART COURSES SUR ROUTE 925117M2F (3 / 13)9.5
164MICHAUD LOELIE00:31:355118MIF (5 / 6)9.4
165MICHAUD LAURENT00:31:355119M2M (16 / 17)9.4
166GODON EMILIEN00:31:37JSP5084SEM (22 / 28)9.4
167RAPP CHLOE00:31:475027MIF (6 / 6)9.4
168MARZE CHRISTINE00:31:485026M2F (4 / 13)9.4
169ALEGRIA INES00:31:51EQUIPE SCIENCES PO PARIS5202ESF (7 / 15)9.4
170BERRI FREDERIC00:31:585216M2M (17 / 17)9.3
171DEES STELLA00:32:015028SEF (21 / 42)9.3
172VILLAND FRANCK00:32:055165M3M (9 / 12)9.3
173SANCHEZ SARMIENTO DAVID ANDRES00:32:135108SEM (23 / 28)9.3
174CROUPAT ALEXANDRA00:32:135110M2F (5 / 13)9.3
175GRAIGNIC ANA00:32:135197MIM (11 / 12)9.3
176GIROUX ISABELLE00:32:13CLAMART COURSES SUR ROUTE 925088M2F (6 / 13)9.3
177PINA MATHILDE00:32:19536ESF (8 / 15)9.2
178CIARLET-LAMOUR EMMA00:32:195020ESF (9 / 15)9.2
179LAMOUR FRANCOISE00:32:195019M5F (5 / 6)9.2
180ROUSSELLE MARIE00:32:1931SEF (22 / 42)9.2
181MANCHE-THOUMIEUX SYLVIE00:32:225206M1F (5 / 14)9.2
182CHAMS EDDINE MOKDAD00:32:255137M0M (10 / 10)9.2
183BLAISE JEAN-YVES00:32:275004M3M (10 / 12)9.2
184BLAISE PIERRICK00:32:275244MIM (12 / 12)9.2
185LECOMTE EVAN00:32:305080JUM (4 / 4)9.2
186GLADIEU ERIC00:32:305037M5M (1 / 2)9.2
187GILLARD ISABELLE00:32:375041M5F (6 / 6)9.1
188KERHELLO MAURINE00:32:45EQUIPE SCIENCES PO PARIS5235ESF (10 / 15)9.1
189BOTCHERBY CARLA00:32:465224SEF (23 / 42)9.1
190PENNEQUIN LAURE00:32:475154SEF (24 / 42)9.1
191KHMELEVSKAYA INNA00:32:475231M1F (6 / 14)9.1
192GUIHAIRE CECILE00:32:485185M1F (7 / 14)9.1
193FABRE PIERRE00:33:00SOCIETE ORANO5008M3M (11 / 12)9.0
194FRANCOIS INES00:33:005223ESF (11 / 15)9.0
195MORICEAU JULIE00:33:025184M1F (8 / 14)9.0
196SAHIL ANNE00:33:135031M3F (4 / 10)9.0
197BALCON CATHY00:33:16HANDFIT FONTENAY AUX ROSES5187M2F (7 / 13)9.0
198NGUYEN SOPHIE00:33:20549M2F (8 / 13)9.0
199CORRE ANNE-CECILE00:33:215157M1F (9 / 14)8.9
200HEIB CAROLINE00:33:275176M3F (5 / 10)8.9